Time;durP1;ratioP1;P1;durP2;ratioP2;P2;SDS_P1;SDS_P2;PMS_P1;PMS_P2;Temp;Humidity;BMP_temperature;BMP_pressure;BME280_temperature;BME280_humidity;BME280_pressure;Samples;Min_cycle;Max_cycle;Signal;HPM_P1;HPM_P2
2024/01/12 00:00:29;;;;;;;35.53;25.40;;;0.90;99.90;;;;;;4979651;28;20594;-42
2024/01/12 00:02:55;;;;;;;34.42;25.35;;;1.00;99.90;;;;;;4980888;28;20142;-42
2024/01/12 00:05:21;;;;;;;36.95;25.25;;;1.00;99.90;;;;;;4983058;28;20138;-43
2024/01/12 00:07:47;;;;;;;34.13;23.90;;;1.00;99.90;;;;;;4980211;28;20050;-42
2024/01/12 00:10:13;;;;;;;34.80;24.45;;;1.00;99.90;;;;;;4981918;28;20038;-42
2024/01/12 00:12:39;;;;;;;35.35;26.73;;;0.90;99.90;;;;;;4964294;28;20054;-43
2024/01/12 00:15:05;;;;;;;35.30;26.67;;;1.00;99.90;;;;;;4982878;28;20467;-43
2024/01/12 00:17:31;;;;;;;33.65;25.25;;;1.00;99.90;;;;;;4974737;28;20050;-43
2024/01/12 00:19:57;;;;;;;31.80;22.98;;;1.00;99.90;;;;;;4982575;28;20054;-42
2024/01/12 00:22:23;;;;;;;33.75;25.42;;;1.00;99.90;;;;;;4982669;28;20046;-40
2024/01/12 00:24:49;;;;;;;36.33;25.27;;;1.00;99.90;;;;;;4982259;28;20522;-43
2024/01/12 00:27:15;;;;;;;30.42;23.63;;;1.10;99.90;;;;;;4981037;28;20671;-42
2024/01/12 00:29:41;;;;;;;30.17;22.60;;;1.10;99.90;;;;;;4988477;28;20651;-41
2024/01/12 00:32:07;;;;;;;28.75;21.13;;;1.10;99.90;;;;;;4985413;28;20050;-41
2024/01/12 00:34:32;;;;;;;27.10;22.75;;;1.10;99.90;;;;;;4985494;28;20519;-42
2024/01/12 00:36:59;;;;;;;41.50;23.88;;;1.20;99.90;;;;;;4984464;28;20061;-42
2024/01/12 00:39:25;;;;;;;31.77;22.38;;;1.10;99.90;;;;;;4983368;28;20054;-42
2024/01/12 00:41:52;;;;;;;28.92;20.45;;;1.20;99.90;;;;;;4982313;28;20054;-42
2024/01/12 00:44:18;;;;;;;31.58;22.02;;;1.20;99.90;;;;;;4983322;28;20050;-43
2024/01/12 00:46:45;;;;;;;30.45;20.83;;;1.20;99.90;;;;;;4984183;28;20058;-42
2024/01/12 00:49:11;;;;;;;26.33;20.92;;;1.30;99.90;;;;;;4986732;28;20837;-42
2024/01/12 00:51:37;;;;;;;29.60;19.42;;;1.20;99.90;;;;;;4984804;28;20047;-41
2024/01/12 00:54:04;;;;;;;27.17;19.38;;;1.30;99.90;;;;;;4987711;28;20060;-42
2024/01/12 00:56:30;;;;;;;30.23;19.58;;;1.30;99.90;;;;;;4987760;28;20058;-33
2024/01/12 00:58:55;;;;;;;24.60;18.35;;;1.30;99.90;;;;;;4989940;28;20057;-33
2024/01/12 01:01:22;;;;;;;32.08;18.92;;;1.30;99.90;;;;;;4986315;28;20553;-33
2024/01/12 01:03:48;;;;;;;33.65;18.38;;;1.30;99.90;;;;;;4987556;28;20515;-34
2024/01/12 01:06:14;;;;;;;29.42;18.52;;;1.40;99.90;;;;;;4986586;28;20070;-33
2024/01/12 01:08:40;;;;;;;34.78;19.92;;;1.40;99.90;;;;;;4989242;28;20096;-34
2024/01/12 01:11:06;;;;;;;27.95;18.15;;;1.40;99.90;;;;;;4985418;28;20476;-33
2024/01/12 01:13:32;;;;;;;28.05;18.73;;;1.40;99.90;;;;;;4987491;28;20092;-33
2024/01/12 01:15:58;;;;;;;25.33;17.42;;;1.40;99.90;;;;;;4990342;28;20442;-33
2024/01/12 01:18:23;;;;;;;22.88;17.15;;;1.40;99.90;;;;;;4984783;28;20152;-33
2024/01/12 01:20:49;;;;;;;24.98;17.30;;;1.40;99.90;;;;;;4988593;28;20131;-32
2024/01/12 01:23:15;;;;;;;27.05;16.67;;;1.40;99.90;;;;;;4973654;28;20129;-32
2024/01/12 01:25:41;;;;;;;30.95;16.92;;;1.40;99.90;;;;;;4968371;28;20050;-32
2024/01/12 01:28:07;;;;;;;24.20;15.98;;;1.40;99.90;;;;;;4936732;28;20526;-33
2024/01/12 01:30:32;;;;;;;25.17;16.80;;;1.40;99.90;;;;;;4968712;28;20062;-32
2024/01/12 01:32:58;;;;;;;29.70;17.35;;;1.50;99.90;;;;;;4965249;28;20046;-33
2024/01/12 01:35:24;;;;;;;28.33;16.23;;;1.40;99.90;;;;;;4963377;28;20038;-32
2024/01/12 01:37:50;;;;;;;27.35;16.10;;;1.40;99.90;;;;;;4963411;28;20418;-32
2024/01/12 01:40:16;;;;;;;25.77;15.32;;;1.40;99.90;;;;;;4965421;28;20043;-33
2024/01/12 01:42:45;;;;;;;24.00;15.05;;;1.40;99.90;;;;;;4965215;28;20052;-33
2024/01/12 01:45:11;;;;;;;24.00;13.82;;;1.40;99.90;;;;;;4948652;28;20055;-33
2024/01/12 01:47:36;;;;;;;21.48;13.45;;;1.40;99.90;;;;;;4965276;28;20050;-33
2024/01/12 01:50:03;;;;;;;23.85;14.23;;;1.40;99.90;;;;;;4966886;28;20055;-33
2024/01/12 01:52:29;;;;;;;18.73;12.63;;;1.40;99.90;;;;;;4968186;28;20736;-33
2024/01/12 01:54:56;;;;;;;17.83;12.10;;;1.40;99.90;;;;;;4967596;28;20057;-33
2024/01/12 01:57:24;;;;;;;19.10;10.75;;;1.40;99.90;;;;;;4970440;28;20067;-33
2024/01/12 01:59:50;;;;;;;14.75;10.30;;;1.40;99.90;;;;;;4965578;28;20514;-33
2024/01/12 02:02:16;;;;;;;15.32;10.57;;;1.40;99.90;;;;;;4960526;28;20055;-33
2024/01/12 02:04:42;;;;;;;18.40;11.35;;;1.50;99.90;;;;;;4967839;28;20054;-32
2024/01/12 02:07:09;;;;;;;18.17;10.40;;;1.40;99.90;;;;;;4961496;28;20065;-33
2024/01/12 02:09:35;;;;;;;15.07;9.05;;;1.50;99.90;;;;;;4966769;28;20109;-34
2024/01/12 02:12:04;;;;;;;16.50;9.45;;;1.40;99.90;;;;;;4949366;28;20149;-33
2024/01/12 02:14:30;;;;;;;15.50;8.82;;;1.40;99.90;;;;;;4963745;28;20055;-33
2024/01/12 02:16:56;;;;;;;20.50;9.10;;;1.50;99.90;;;;;;4964089;28;20058;-33
2024/01/12 02:19:22;;;;;;;18.02;9.35;;;1.50;99.90;;;;;;4957981;28;20065;-33
2024/01/12 02:21:48;;;;;;;17.17;9.27;;;1.50;99.90;;;;;;4965701;28;20054;-33
2024/01/12 02:24:13;;;;;;;17.23;8.15;;;1.50;99.90;;;;;;4998055;28;20462;-33
2024/01/12 02:26:39;;;;;;;15.25;7.75;;;1.50;99.90;;;;;;4985566;28;20081;-33
2024/01/12 02:29:05;;;;;;;18.85;8.25;;;1.50;99.90;;;;;;4986208;28;20106;-33
2024/01/12 02:31:31;;;;;;;16.17;7.82;;;1.50;99.90;;;;;;4985483;28;20687;-33
2024/01/12 02:33:57;;;;;;;11.27;6.47;;;1.50;99.90;;;;;;4984921;28;20450;-32
2024/01/12 02:36:28;;;;;;;15.95;7.63;;;1.50;99.90;;;;;;4983766;28;20538;-32
2024/01/12 02:38:55;;;;;;;13.95;7.13;;;1.50;99.90;;;;;;4985493;28;20065;-33
2024/01/12 02:41:21;;;;;;;15.15;6.95;;;1.50;99.90;;;;;;4981860;28;20076;-33
2024/01/12 02:43:47;;;;;;;14.23;7.32;;;1.50;99.90;;;;;;4974077;28;20059;-34
2024/01/12 02:46:13;;;;;;;16.50;6.95;;;1.60;99.90;;;;;;4984984;28;20053;-33
2024/01/12 02:48:39;;;;;;;14.77;6.78;;;1.60;99.90;;;;;;4966868;28;20210;-35
2024/01/12 02:51:05;;;;;;;12.95;6.45;;;1.60;99.90;;;;;;4985195;28;20161;-33
2024/01/12 02:53:31;;;;;;;15.43;6.32;;;1.60;99.90;;;;;;4987977;28;20046;-33
2024/01/12 02:55:57;;;;;;;14.82;6.88;;;1.60;99.90;;;;;;4986489;28;20046;-33
2024/01/12 02:58:23;;;;;;;11.18;6.90;;;1.60;99.90;;;;;;4982478;28;20050;-34
2024/01/12 03:00:49;;;;;;;10.10;6.13;;;1.60;99.90;;;;;;4982811;28;20052;-34
2024/01/12 03:03:15;;;;;;;15.40;5.68;;;1.60;99.90;;;;;;4985125;28;20050;-33
2024/01/12 03:05:40;;;;;;;12.00;5.32;;;1.60;99.90;;;;;;4987577;28;20061;-35
2024/01/12 03:08:06;;;;;;;11.32;5.70;;;1.60;99.90;;;;;;4985602;28;20070;-34
2024/01/12 03:10:32;;;;;;;14.68;5.40;;;1.60;99.90;;;;;;4970558;28;20142;-34
2024/01/12 03:12:58;;;;;;;14.63;5.63;;;1.60;99.90;;;;;;4986491;28;20463;-34
2024/01/12 03:15:23;;;;;;;18.02;5.55;;;1.60;99.90;;;;;;4985111;28;20046;-33
2024/01/12 03:17:49;;;;;;;12.18;5.65;;;1.60;99.90;;;;;;4984633;28;20074;-33
2024/01/12 03:20:15;;;;;;;9.95;5.00;;;1.60;99.90;;;;;;4986534;28;20063;-33
2024/01/12 03:22:40;;;;;;;12.10;5.07;;;1.60;99.90;;;;;;4987356;28;20077;-34
2024/01/12 03:25:06;;;;;;;11.45;4.90;;;1.60;99.90;;;;;;4966660;28;20137;-33
2024/01/12 03:27:34;;;;;;;11.18;4.60;;;1.50;99.90;;;;;;4983727;28;20086;-33
2024/01/12 03:30:00;;;;;;;9.93;4.47;;;1.60;99.90;;;;;;4985499;28;20042;-34
2024/01/12 03:32:25;;;;;;;9.75;5.05;;;1.60;99.90;;;;;;4984506;28;20944;-33
2024/01/12 03:34:51;;;;;;;9.20;5.18;;;1.60;99.90;;;;;;4988173;28;20133;-34
2024/01/12 03:37:17;;;;;;;15.00;5.63;;;1.60;99.90;;;;;;4985686;28;20058;-34
2024/01/12 03:39:42;;;;;;;11.18;4.72;;;1.60;99.90;;;;;;4984966;28;20089;-33
2024/01/12 03:42:08;;;;;;;15.02;4.93;;;1.60;99.90;;;;;;4986032;28;20047;-34
2024/01/12 03:44:34;;;;;;;12.70;4.60;;;1.60;99.90;;;;;;4985468;28;20516;-33
2024/01/12 03:47:00;;;;;;;12.25;5.57;;;1.60;99.90;;;;;;4983352;28;20077;-33
2024/01/12 03:49:25;;;;;;;10.68;4.70;;;1.60;99.90;;;;;;4984794;28;20050;-34
2024/01/12 03:51:53;;;;;;;9.88;5.00;;;1.60;99.90;;;;;;4982836;28;20055;-33
2024/01/12 03:54:25;;;;;;;12.00;5.10;;;1.60;99.90;;;;;;4984789;28;20054;-33
2024/01/12 03:56:51;;;;;;;12.65;5.13;;;1.60;99.90;;;;;;4986131;28;20050;-33
2024/01/12 03:59:16;;;;;;;12.68;5.25;;;1.60;99.90;;;;;;4991693;28;20057;-35
2024/01/12 04:01:46;;;;;;;12.90;4.57;;;1.60;99.90;;;;;;4988039;28;20077;-34
2024/01/12 04:04:12;;;;;;;10.82;4.82;;;1.70;99.90;;;;;;4984614;28;20055;-33
2024/01/12 04:06:41;;;;;;;15.07;5.90;;;1.70;99.90;;;;;;4989729;28;20054;-34
2024/01/12 04:09:11;;;;;;;10.10;4.75;;;1.70;99.90;;;;;;4985588;28;20077;-32
2024/01/12 04:11:37;;;;;;;12.77;5.25;;;1.70;99.90;;;;;;4992529;28;20108;-35
2024/01/12 04:14:03;;;;;;;9.27;4.65;;;1.70;99.90;;;;;;4989957;28;20209;-32
2024/01/12 04:16:29;;;;;;;10.52;5.47;;;1.70;99.90;;;;;;4988259;28;20133;-34
2024/01/12 04:18:55;;;;;;;11.25;5.50;;;1.60;99.90;;;;;;4992812;28;20054;-34
2024/01/12 04:21:21;;;;;;;13.50;5.15;;;1.70;99.90;;;;;;4972651;28;20792;-33
2024/01/12 04:23:47;;;;;;;8.75;5.13;;;1.70;99.90;;;;;;4990751;28;20053;-35
2024/01/12 04:26:13;;;;;;;11.40;4.70;;;1.70;99.90;;;;;;4978799;28;20062;-35
2024/01/12 04:28:39;;;;;;;13.73;5.20;;;1.70;99.90;;;;;;4986702;28;20057;-34
2024/01/12 04:31:05;;;;;;;13.27;5.00;;;1.70;99.90;;;;;;4988066;28;20108;-34
2024/01/12 04:33:32;;;;;;;9.63;5.25;;;1.70;99.90;;;;;;4967270;28;20218;-33
2024/01/12 04:35:59;;;;;;;12.68;5.70;;;1.70;99.90;;;;;;4988523;28;20507;-36
2024/01/12 04:38:26;;;;;;;10.27;5.25;;;1.70;99.90;;;;;;4987512;28;20109;-34
2024/01/12 04:40:52;;;;;;;9.93;4.15;;;1.60;99.90;;;;;;4982822;28;20133;-34
2024/01/12 04:43:18;;;;;;;11.88;4.43;;;1.70;99.90;;;;;;4973346;28;20049;-35
2024/01/12 04:45:44;;;;;;;14.25;4.95;;;1.60;99.90;;;;;;4987521;28;20112;-34
2024/01/12 04:48:09;;;;;;;9.70;5.20;;;1.60;99.90;;;;;;4987722;28;20054;-33
2024/01/12 04:50:35;;;;;;;9.38;4.53;;;1.60;99.90;;;;;;4986053;28;20058;-34
2024/01/12 04:53:01;;;;;;;8.75;4.75;;;1.60;99.90;;;;;;4985393;28;20514;-33
2024/01/12 04:55:27;;;;;;;11.48;4.85;;;1.60;99.90;;;;;;4987199;28;20057;-34
2024/01/12 04:57:53;;;;;;;14.20;5.15;;;1.60;99.90;;;;;;4983629;28;20108;-34
2024/01/12 05:00:20;;;;;;;13.45;4.90;;;1.60;99.90;;;;;;4986575;28;20086;-34
2024/01/12 05:02:45;;;;;;;13.48;4.45;;;1.60;99.90;;;;;;4986015;28;20054;-34
2024/01/12 05:05:11;;;;;;;12.68;4.88;;;1.60;99.90;;;;;;4983964;28;20057;-34
2024/01/12 05:07:37;;;;;;;11.77;4.50;;;1.50;99.90;;;;;;4987447;28;20481;-34
2024/01/12 05:10:04;;;;;;;13.07;5.13;;;1.50;99.90;;;;;;4982024;28;20050;-34
2024/01/12 05:12:29;;;;;;;10.40;5.15;;;1.60;99.90;;;;;;4984113;28;20400;-34
2024/01/12 05:14:55;;;;;;;14.98;5.18;;;1.60;99.90;;;;;;4989324;28;20050;-34
2024/01/12 05:17:22;;;;;;;11.88;4.18;;;1.60;99.90;;;;;;4986855;28;20412;-34
2024/01/12 05:19:48;;;;;;;11.30;5.55;;;1.60;99.90;;;;;;4968747;28;20140;-34
2024/01/12 05:22:14;;;;;;;11.57;5.55;;;1.60;99.90;;;;;;4982941;28;20063;-34
2024/01/12 05:24:40;;;;;;;10.10;4.85;;;1.60;99.90;;;;;;4986463;28;20190;-34
2024/01/12 05:27:06;;;;;;;12.48;4.78;;;1.60;99.90;;;;;;4964138;28;20116;-34
2024/01/12 05:29:33;;;;;;;13.48;5.10;;;1.60;99.90;;;;;;4970752;28;20476;-35
2024/01/12 05:32:00;;;;;;;12.18;5.03;;;1.60;99.90;;;;;;4984000;28;20050;-34
2024/01/12 05:34:26;;;;;;;9.85;5.20;;;1.60;99.90;;;;;;4967171;28;20050;-34
2024/01/12 05:36:51;;;;;;;8.93;4.30;;;1.60;99.90;;;;;;4983200;28;20058;-34
2024/01/12 05:39:18;;;;;;;9.52;4.30;;;1.60;99.90;;;;;;4989163;28;20556;-34
2024/01/12 05:41:43;;;;;;;9.20;4.38;;;1.50;99.90;;;;;;4983156;28;20099;-33
2024/01/12 05:44:09;;;;;;;12.85;4.70;;;1.50;99.90;;;;;;4982313;28;20038;-33
2024/01/12 05:46:35;;;;;;;9.82;3.88;;;1.50;99.90;;;;;;4983844;28;20062;-34
2024/01/12 05:49:04;;;;;;;10.98;4.60;;;1.50;99.90;;;;;;4985717;28;20138;-33
2024/01/12 05:51:30;;;;;;;12.32;4.53;;;1.50;99.90;;;;;;4969444;28;20053;-35
2024/01/12 05:53:55;;;;;;;9.73;4.50;;;1.50;99.90;;;;;;4984965;28;20059;-34
2024/01/12 05:56:22;;;;;;;11.88;4.75;;;1.50;99.90;;;;;;4990492;28;20141;-34
2024/01/12 05:58:48;;;;;;;11.60;4.57;;;1.50;99.90;;;;;;4983446;28;20074;-36
2024/01/12 06:01:14;;;;;;;9.73;4.85;;;1.50;99.90;;;;;;4986282;28;20142;-34
2024/01/12 06:03:40;;;;;;;13.75;4.93;;;1.40;99.90;;;;;;4986055;28;20057;-34
2024/01/12 06:06:06;;;;;;;11.32;4.80;;;1.40;99.90;;;;;;4985464;28;20042;-34
2024/01/12 06:08:31;;;;;;;9.98;4.85;;;1.40;99.90;;;;;;4965513;28;20095;-34
2024/01/12 06:10:57;;;;;;;12.38;4.70;;;1.40;99.90;;;;;;4983574;28;20046;-34
2024/01/12 06:13:23;;;;;;;10.90;4.75;;;1.40;99.90;;;;;;4968857;28;20506;-34
2024/01/12 06:15:48;;;;;;;10.95;5.25;;;1.40;99.90;;;;;;4977031;28;20057;-34
2024/01/12 06:18:14;;;;;;;10.75;5.32;;;1.30;99.90;;;;;;4966426;28;20063;-34
2024/01/12 06:20:40;;;;;;;13.48;4.90;;;1.40;99.90;;;;;;4986386;28;20042;-34
2024/01/12 06:23:06;;;;;;;12.32;5.57;;;1.40;99.90;;;;;;4984049;28;20145;-33
2024/01/12 06:25:36;;;;;;;12.82;5.40;;;1.40;99.90;;;;;;4982893;28;20042;-35
2024/01/12 06:28:02;;;;;;;13.02;5.95;;;1.40;99.90;;;;;;4983627;28;20046;-34
2024/01/12 06:30:28;;;;;;;13.35;5.78;;;1.40;99.90;;;;;;4984234;28;20050;-35
2024/01/12 06:32:54;;;;;;;13.05;5.97;;;1.40;99.90;;;;;;4984640;28;20112;-33
2024/01/12 06:35:19;;;;;;;10.05;5.18;;;1.40;99.90;;;;;;4983228;28;20058;-34
2024/01/12 06:37:45;;;;;;;13.63;6.20;;;1.40;99.90;;;;;;4985354;28;20466;-36
2024/01/12 06:40:11;;;;;;;12.02;5.93;;;1.40;99.90;;;;;;4982623;28;20548;-34
2024/01/12 06:42:37;;;;;;;10.07;5.88;;;1.40;99.90;;;;;;4985384;28;20152;-34
2024/01/12 06:45:07;;;;;;;14.45;5.75;;;1.40;99.90;;;;;;4981146;28;20046;-33
2024/01/12 06:47:34;;;;;;;13.30;5.85;;;1.40;99.90;;;;;;4982765;28;20051;-34
2024/01/12 06:50:00;;;;;;;13.88;5.82;;;1.40;99.90;;;;;;4983125;28;20476;-33
2024/01/12 06:52:26;;;;;;;12.23;5.53;;;1.40;99.90;;;;;;4979768;28;20687;-35
2024/01/12 06:54:52;;;;;;;10.18;5.88;;;1.40;99.90;;;;;;4982571;28;20108;-34
2024/01/12 06:57:18;;;;;;;10.93;5.70;;;1.40;99.90;;;;;;4965779;28;20080;-35
2024/01/12 06:59:43;;;;;;;12.82;5.72;;;1.40;99.90;;;;;;4967594;28;20085;-33
2024/01/12 07:02:09;;;;;;;15.27;5.63;;;1.40;99.90;;;;;;4979603;28;20061;-36
2024/01/12 07:04:35;;;;;;;12.85;5.30;;;1.40;99.90;;;;;;4983890;28;20054;-35
2024/01/12 07:07:02;;;;;;;10.88;5.25;;;1.40;99.90;;;;;;4985675;28;20542;-34
2024/01/12 07:09:27;;;;;;;16.52;5.45;;;1.40;99.90;;;;;;4954865;28;20579;-34
2024/01/12 07:11:53;;;;;;;10.38;5.45;;;1.50;99.90;;;;;;4955798;28;20055;-34
2024/01/12 07:14:19;;;;;;;13.63;6.25;;;1.50;99.90;;;;;;4962669;28;20054;-35
2024/01/12 07:16:45;;;;;;;12.93;6.00;;;1.50;99.90;;;;;;4982312;28;20519;-34
2024/01/12 07:19:11;;;;;;;16.48;6.90;;;1.40;99.90;;;;;;4979912;28;20100;-33
2024/01/12 07:21:36;;;;;;;11.60;6.03;;;1.40;99.90;;;;;;4964970;28;20453;-34
2024/01/12 07:24:02;;;;;;;15.05;6.45;;;1.40;99.90;;;;;;4983545;28;20093;-33
2024/01/12 07:26:28;;;;;;;14.18;6.50;;;1.50;99.90;;;;;;4980361;28;20468;-34
2024/01/12 07:28:54;;;;;;;12.32;6.50;;;1.40;99.90;;;;;;4967893;28;20050;-34
2024/01/12 07:31:20;;;;;;;14.05;6.47;;;1.40;99.90;;;;;;4988546;28;20062;-35
2024/01/12 07:33:46;;;;;;;11.32;6.57;;;1.50;99.90;;;;;;4982346;28;20078;-34
2024/01/12 07:36:11;;;;;;;14.77;6.90;;;1.50;99.90;;;;;;4968931;28;20567;-34
2024/01/12 07:38:37;;;;;;;14.10;7.25;;;1.50;99.90;;;;;;4983397;28;20105;-35
2024/01/12 07:41:03;;;;;;;13.95;6.93;;;1.50;99.90;;;;;;4985344;28;20042;-36
2024/01/12 07:43:30;;;;;;;13.48;6.38;;;1.50;99.90;;;;;;4986765;28;20485;-35
2024/01/12 07:45:57;;;;;;;13.52;6.57;;;1.40;99.90;;;;;;4985819;28;20304;-34
2024/01/12 07:48:23;;;;;;;15.77;6.40;;;1.50;99.90;;;;;;4987198;28;20053;-35
2024/01/12 07:50:49;;;;;;;13.57;6.18;;;1.50;99.90;;;;;;4988859;28;20416;-34
2024/01/12 07:53:15;;;;;;;13.00;5.95;;;1.50;99.90;;;;;;4982817;28;20149;-33
2024/01/12 07:55:41;;;;;;;16.52;6.60;;;1.50;99.90;;;;;;4971958;28;20623;-33
2024/01/12 07:58:06;;;;;;;15.20;6.85;;;1.50;99.90;;;;;;4978106;28;20058;-34
2024/01/12 08:00:32;;;;;;;17.40;6.20;;;1.50;99.90;;;;;;4993097;28;20081;-34
2024/01/12 08:02:58;;;;;;;15.05;6.35;;;1.60;99.90;;;;;;4988006;28;20050;-35
2024/01/12 08:05:24;;;;;;;13.57;6.63;;;1.50;99.90;;;;;;4986564;28;20276;-35
2024/01/12 08:07:50;;;;;;;11.85;6.20;;;1.60;99.90;;;;;;4990881;28;20574;-34
2024/01/12 08:10:16;;;;;;;14.35;6.15;;;1.60;99.90;;;;;;4986478;28;20042;-34
2024/01/12 08:12:42;;;;;;;16.80;6.57;;;1.60;99.90;;;;;;4989085;28;20058;-34
2024/01/12 08:15:11;;;;;;;17.42;7.32;;;1.70;99.90;;;;;;4986967;28;20046;-33
2024/01/12 08:17:38;;;;;;;15.18;7.53;;;1.70;99.90;;;;;;4989358;28;20781;-36
2024/01/12 08:20:04;;;;;;;13.38;6.28;;;1.70;99.90;;;;;;4986642;28;20121;-33
2024/01/12 08:22:32;;;;;;;16.67;6.80;;;1.70;99.90;;;;;;4989351;28;20136;-33
2024/01/12 08:24:58;;;;;;;12.57;6.07;;;1.80;99.90;;;;;;4984382;28;20085;-35
2024/01/12 08:27:23;;;;;;;15.88;6.40;;;1.80;99.90;;;;;;4989843;28;20042;-33
2024/01/12 08:29:49;;;;;;;13.73;5.90;;;1.90;99.90;;;;;;4985924;28;20181;-34
2024/01/12 08:32:15;;;;;;;12.48;5.57;;;1.80;99.90;;;;;;4987896;28;20054;-33
2024/01/12 08:34:41;;;;;;;10.57;5.55;;;1.80;99.90;;;;;;4984758;28;20054;-35
2024/01/12 08:37:06;;;;;;;14.57;5.22;;;1.90;99.90;;;;;;4987393;28;20076;-34
2024/01/12 08:39:33;;;;;;;11.23;5.10;;;1.90;99.90;;;;;;4971500;28;20113;-35
2024/01/12 08:41:59;;;;;;;15.18;5.75;;;1.90;99.90;;;;;;4989270;28;20133;-34
2024/01/12 08:44:25;;;;;;;14.65;4.88;;;2.00;99.90;;;;;;4993141;28;20135;-35
2024/01/12 08:46:53;;;;;;;14.32;6.07;;;2.00;99.90;;;;;;4990813;28;20081;-34
2024/01/12 08:49:20;;;;;;;11.93;5.30;;;2.10;99.90;;;;;;4987281;28;20137;-33
2024/01/12 08:51:48;;;;;;;19.25;6.43;;;2.00;99.90;;;;;;4988285;28;20134;-33
2024/01/12 08:54:13;;;;;;;16.25;5.70;;;2.10;99.90;;;;;;4988019;28;20057;-32
2024/01/12 08:56:39;;;;;;;10.77;4.90;;;2.10;99.90;;;;;;4986225;28;20065;-33
2024/01/12 08:59:05;;;;;;;13.32;4.72;;;2.10;99.90;;;;;;4988305;28;20053;-33
2024/01/12 09:01:30;;;;;;;14.27;5.10;;;2.10;99.90;;;;;;4982342;28;20080;-33
2024/01/12 09:03:56;;;;;;;12.27;5.00;;;2.20;99.90;;;;;;4988094;28;20448;-32
2024/01/12 09:06:23;;;;;;;12.50;4.55;;;2.20;99.90;;;;;;4986372;28;20061;-33
2024/01/12 09:08:50;;;;;;;14.13;4.70;;;2.20;99.90;;;;;;4989518;28;20049;-32
2024/01/12 09:11:16;;;;;;;15.98;4.65;;;2.30;99.90;;;;;;4987709;28;20120;-32
2024/01/12 09:13:41;;;;;;;15.07;5.25;;;2.30;99.90;;;;;;4988715;28;20587;-32
2024/01/12 09:16:10;;;;;;;14.95;5.00;;;2.30;99.90;;;;;;4987467;28;20065;-32
2024/01/12 09:18:37;;;;;;;14.73;5.20;;;2.30;99.90;;;;;;4993145;28;20124;-32
2024/01/12 09:21:03;;;;;;;17.17;5.03;;;2.30;99.90;;;;;;4975763;28;20070;-33
2024/01/12 09:23:29;;;;;;;13.82;5.35;;;2.30;99.90;;;;;;4978849;28;20097;-33
2024/01/12 09:25:55;;;;;;;11.07;4.85;;;2.40;99.90;;;;;;4986441;28;20409;-32
2024/01/12 09:28:21;;;;;;;14.27;5.60;;;2.40;99.90;;;;;;4985219;28;20038;-32
2024/01/12 09:30:47;;;;;;;14.98;5.10;;;2.40;99.90;;;;;;4981993;28;20053;-33
2024/01/12 09:33:13;;;;;;;13.93;4.68;;;2.40;99.90;;;;;;4988339;28;20125;-33
2024/01/12 09:35:39;;;;;;;14.70;4.20;;;2.50;99.90;;;;;;4987392;28;20822;-33
2024/01/12 09:38:05;;;;;;;10.90;4.07;;;2.50;99.90;;;;;;4987105;28;20082;-34
2024/01/12 09:40:32;;;;;;;10.18;3.88;;;2.50;99.90;;;;;;4987182;28;20038;-33
2024/01/12 09:43:00;;;;;;;13.93;4.00;;;2.50;99.90;;;;;;4988544;28;20440;-33
2024/01/12 09:45:26;;;;;;;12.05;4.00;;;2.60;99.90;;;;;;4986580;28;20046;-33
2024/01/12 09:47:55;;;;;;;11.13;3.50;;;2.60;99.90;;;;;;4985696;28;20520;-34
2024/01/12 09:50:21;;;;;;;13.93;4.05;;;2.60;99.90;;;;;;4986568;28;20072;-33
2024/01/12 09:52:48;;;;;;;11.27;2.95;;;2.60;99.90;;;;;;4984632;28;20499;-33
2024/01/12 09:55:14;;;;;;;11.70;3.08;;;2.70;99.90;;;;;;4987010;28;20046;-33
2024/01/12 09:57:41;;;;;;;12.07;3.33;;;2.70;99.90;;;;;;4983917;28;20662;-32
2024/01/12 10:00:09;;;;;;;11.00;3.17;;;2.80;99.90;;;;;;4988980;28;20145;-33
2024/01/12 10:02:35;;;;;;;11.75;3.00;;;2.80;99.90;;;;;;4983767;28;20100;-32
2024/01/12 10:05:00;;;;;;;13.52;3.75;;;2.90;99.90;;;;;;4984997;28;20054;-33
2024/01/12 10:07:26;;;;;;;11.90;3.30;;;2.90;99.90;;;;;;4985301;28;20050;-32
2024/01/12 10:09:52;;;;;;;9.23;3.00;;;3.00;99.90;;;;;;4972667;28;20158;-33
2024/01/12 10:12:18;;;;;;;12.27;3.40;;;3.00;99.90;;;;;;4986122;28;20047;-32
2024/01/12 10:14:44;;;;;;;17.15;3.50;;;3.10;99.90;;;;;;4983814;28;20058;-32
2024/01/12 10:17:13;;;;;;;11.68;3.03;;;3.10;99.90;;;;;;4990095;28;20456;-33
2024/01/12 10:19:40;;;;;;;13.13;2.97;;;3.10;99.90;;;;;;4983378;28;20559;-33
2024/01/12 10:22:12;;;;;;;16.95;3.22;;;3.20;99.90;;;;;;4970901;28;20101;-32
2024/01/12 10:24:38;;;;;;;12.35;2.83;;;3.20;99.90;;;;;;4988898;28;20058;-33
2024/01/12 10:27:05;;;;;;;14.32;2.58;;;3.20;99.90;;;;;;4984648;28;20057;-34
2024/01/12 10:29:30;;;;;;;12.48;2.75;;;3.30;99.90;;;;;;4970534;28;20077;-33
2024/01/12 10:31:56;;;;;;;12.65;3.10;;;3.30;99.90;;;;;;4985313;28;20538;-33
2024/01/12 10:34:24;;;;;;;13.52;3.63;;;3.40;99.90;;;;;;4988488;28;20050;-33
2024/01/12 10:36:55;;;;;;;18.98;3.55;;;3.50;99.90;;;;;;4987459;28;20066;-33
2024/01/12 10:39:22;;;;;;;17.23;3.58;;;3.50;99.90;;;;;;4980072;28;20583;-32
2024/01/12 10:41:50;;;;;;;15.43;3.70;;;3.50;99.90;;;;;;4984688;28;20051;-32
2024/01/12 10:44:20;;;;;;;16.77;4.13;;;3.60;99.90;;;;;;4984030;28;20042;-32
2024/01/12 10:46:48;;;;;;;16.65;3.72;;;3.60;99.90;;;;;;4978682;28;20062;-34
2024/01/12 10:49:17;;;;;;;15.40;3.78;;;3.70;99.90;;;;;;4984107;28;20558;-33
2024/01/12 10:52:08;;;;;;;15.55;3.78;;;3.70;99.90;;;;;;4983777;28;20058;-33
2024/01/12 10:55:02;;;;;;;16.73;3.63;;;3.80;99.90;;;;;;4951810;28;20054;-33
2024/01/12 10:57:30;;;;;;;14.23;3.65;;;3.80;99.90;;;;;;4977725;28;20050;-33
2024/01/12 10:59:57;;;;;;;13.85;3.53;;;3.90;99.90;;;;;;4987369;28;20058;-33
2024/01/12 11:02:24;;;;;;;12.57;3.20;;;3.90;99.90;;;;;;4987340;28;20050;-33
2024/01/12 11:04:50;;;;;;;14.77;3.53;;;3.90;99.90;;;;;;4985053;28;20147;-34
2024/01/12 11:07:17;;;;;;;14.55;3.47;;;4.00;99.90;;;;;;4982960;28;20065;-33
2024/01/12 11:09:43;;;;;;;12.27;3.50;;;4.10;99.90;;;;;;4983721;28;20185;-34
2024/01/12 11:12:12;;;;;;;18.23;4.55;;;4.10;99.90;;;;;;4983980;28;20133;-33
2024/01/12 11:14:39;;;;;;;20.00;4.32;;;4.20;99.90;;;;;;4986342;28;20054;-33
2024/01/12 11:17:06;;;;;;;19.20;4.18;;;4.20;99.90;;;;;;4985911;28;20058;-33
2024/01/12 11:19:32;;;;;;;15.52;3.13;;;4.20;99.90;;;;;;4967681;28;20082;-33
2024/01/12 11:22:10;;;;;;;10.20;2.60;;;4.20;99.90;;;;;;4983269;28;20466;-32
2024/01/12 11:24:38;;;;;;;13.18;3.38;;;4.30;99.90;;;;;;4981044;28;20133;-33
2024/01/12 11:27:04;;;;;;;14.57;2.53;;;4.30;99.90;;;;;;4969384;28;20062;-33
2024/01/12 11:29:31;;;;;;;15.82;2.30;;;4.40;99.90;;;;;;4985128;28;20503;-33
2024/01/12 11:32:04;;;;;;;12.93;1.70;;;4.40;99.90;;;;;;4984876;28;20141;-33
2024/01/12 11:34:34;;;;;;;12.05;1.77;;;4.50;99.90;;;;;;4984397;28;20056;-33
2024/01/12 11:37:01;;;;;;;11.95;2.00;;;4.40;99.90;;;;;;4985768;28;20504;-33
2024/01/12 11:39:32;;;;;;;11.70;1.75;;;4.40;99.90;;;;;;4984872;28;20115;-33
2024/01/12 11:41:59;;;;;;;11.10;1.92;;;4.40;99.90;;;;;;4982115;28;20054;-33
2024/01/12 11:44:25;;;;;;;11.80;1.98;;;4.40;99.90;;;;;;4984144;28;20042;-33
2024/01/12 11:46:52;;;;;;;10.50;2.20;;;4.40;99.90;;;;;;4987274;28;20124;-33
2024/01/12 11:49:18;;;;;;;17.67;2.85;;;4.40;99.90;;;;;;4967876;28;20050;-34
2024/01/12 11:51:43;;;;;;;12.32;2.83;;;4.40;99.90;;;;;;4982396;28;20046;-34
2024/01/12 11:54:10;;;;;;;17.08;3.08;;;4.50;99.90;;;;;;4982729;28;20499;-33
2024/01/12 11:56:35;;;;;;;16.67;4.47;;;4.50;99.90;;;;;;4983188;28;20869;-33
2024/01/12 11:59:01;;;;;;;15.93;4.47;;;4.50;99.90;;;;;;4983754;28;20049;-34
2024/01/12 12:01:27;;;;;;;16.95;4.72;;;4.60;99.90;;;;;;4986099;28;20049;-33
2024/01/12 12:03:54;;;;;;;21.20;5.80;;;4.60;99.90;;;;;;4982980;28;20050;-34
2024/01/12 12:06:20;;;;;;;20.60;6.00;;;4.70;99.90;;;;;;4983748;28;20479;-34
2024/01/12 12:08:46;;;;;;;19.23;6.00;;;4.70;99.90;;;;;;4941600;28;20117;-34
2024/01/12 12:11:13;;;;;;;17.23;5.57;;;4.60;99.90;;;;;;4969586;28;21194;-33
2024/01/12 12:13:40;;;;;;;16.52;4.95;;;4.60;99.90;;;;;;4983620;28;20401;-34
2024/01/12 12:16:07;;;;;;;14.13;4.15;;;4.60;99.90;;;;;;4990191;28;20134;-34
2024/01/12 12:18:36;;;;;;;19.13;4.50;;;4.60;99.90;;;;;;4985101;28;20141;-33
2024/01/12 12:21:02;;;;;;;16.73;4.57;;;4.60;99.90;;;;;;4983738;28;20077;-33
2024/01/12 12:23:29;;;;;;;21.30;4.18;;;4.60;99.90;;;;;;4971453;28;20050;-34
2024/01/12 12:25:55;;;;;;;17.73;5.45;;;4.60;99.90;;;;;;4971206;28;20371;-32
2024/01/12 12:28:23;;;;;;;22.15;7.40;;;4.60;99.90;;;;;;4970514;28;20050;-33
2024/01/12 12:30:52;;;;;;;27.88;9.48;;;4.70;99.90;;;;;;4966131;28;20066;-33
2024/01/12 12:33:18;;;;;;;23.15;8.05;;;4.60;99.90;;;;;;4970159;28;20046;-33
2024/01/12 12:35:44;;;;;;;18.05;5.85;;;4.70;99.90;;;;;;4967615;28;20050;-34
2024/01/12 12:38:10;;;;;;;15.52;3.50;;;4.70;99.90;;;;;;4969968;28;20059;-33
2024/01/12 12:40:35;;;;;;;13.82;3.70;;;4.70;99.90;;;;;;4966343;28;20136;-34